Terminal Aerodrome Forecast
Issued by NWS

Home | Current Version | Previous Version | Text Only | Print | Product List | Glossary On
Versions: 1 2 3 4 5 6 7 8 9 10 11 12 13
000
FTUS45 KVEF 242320
TAFDAG
TAF
KDAG 242320Z 2500/2524 26014G22KT P6SM SKC
     FM250100 25014KT P6SM SKC
     FM251000 29010KT P6SM SKC
     FM252000 28016G26KT P6SM SKC=

USA.gov is the U.S. government's official web portal to all federal, state and local government web resources and services.